Airport View

Enter AWOS ICAO identifier for current METAR.

ex. KFNL

KLTS 191156Z AUTO 34008KT 10SM CLR 12/09 A2985 RMK AO2 SLP097 70051 T01200087 10150 20104 52011 $

19 May 2019 13:20

Other Area AWOS: KAXS - KHBR - KFDR - KF05

TAF COR KLTS 182335Z 1823/1923 20015G25KT 9999 FEW200 QNH2947INS BECMG 1902/1903 25009KT 9999 SKC 510012 QNH2959INS BECMG 1914/1915 02010G15KT 9999 FEW310 QNH2984INS TX30/1823Z TN15/1911Z LAST NO AMDS AFT 1823 NEXT 2009